sensor_id;sensor_type;location;lat;lon;timestamp;temperature;humidity
12111;DHT22;6119;52.372;8.990;2023-07-13T00:02:34;18.70;99.90
12111;DHT22;6119;52.372;8.990;2023-07-13T00:05:21;18.70;99.90
12111;DHT22;6119;52.372;8.990;2023-07-13T00:08:09;18.70;99.90
12111;DHT22;6119;52.372;8.990;2023-07-13T00:10:56;18.70;99.90
12111;DHT22;6119;52.372;8.990;2023-07-13T00:13:44;18.70;99.90
12111;DHT22;6119;52.372;8.990;2023-07-13T00:16:30;18.70;99.90
12111;DHT22;6119;52.372;8.990;2023-07-13T00:19:17;18.60;99.90
12111;DHT22;6119;52.372;8.990;2023-07-13T00:22:04;18.60;99.90
12111;DHT22;6119;52.372;8.990;2023-07-13T00:24:53;18.60;99.90
12111;DHT22;6119;52.372;8.990;2023-07-13T00:27:42;18.50;99.90
12111;DHT22;6119;52.372;8.990;2023-07-13T00:30:29;18.60;99.90
12111;DHT22;6119;52.372;8.990;2023-07-13T00:33:16;18.50;99.90
12111;DHT22;6119;52.372;8.990;2023-07-13T00:36:04;18.40;99.90
12111;DHT22;6119;52.372;8.990;2023-07-13T00:38:50;18.40;99.90
12111;DHT22;6119;52.372;8.990;2023-07-13T00:41:38;18.50;99.90
12111;DHT22;6119;52.372;8.990;2023-07-13T00:44:25;18.50;99.90
12111;DHT22;6119;52.372;8.990;2023-07-13T00:47:11;18.40;99.90
12111;DHT22;6119;52.372;8.990;2023-07-13T00:49:58;18.40;99.90
12111;DHT22;6119;52.372;8.990;2023-07-13T00:52:46;18.20;99.90
12111;DHT22;6119;52.372;8.990;2023-07-13T00:55:34;18.30;99.90
12111;DHT22;6119;52.372;8.990;2023-07-13T00:58:22;18.40;99.90
12111;DHT22;6119;52.372;8.990;2023-07-13T01:01:09;18.30;99.90
12111;DHT22;6119;52.372;8.990;2023-07-13T01:03:58;18.30;99.90
12111;DHT22;6119;52.372;8.990;2023-07-13T01:06:45;18.40;99.90
12111;DHT22;6119;52.372;8.990;2023-07-13T01:09:32;18.40;99.90
12111;DHT22;6119;52.372;8.990;2023-07-13T01:12:19;18.40;99.90
12111;DHT22;6119;52.372;8.990;2023-07-13T01:15:35;18.40;99.90
12111;DHT22;6119;52.372;8.990;2023-07-13T01:18:25;18.30;99.90
12111;DHT22;6119;52.372;8.990;2023-07-13T01:21:13;18.30;99.90
12111;DHT22;6119;52.372;8.990;2023-07-13T01:24:01;18.30;99.90
12111;DHT22;6119;52.372;8.990;2023-07-13T01:26:48;18.10;99.90
12111;DHT22;6119;52.372;8.990;2023-07-13T01:29:35;18.20;99.90
12111;DHT22;6119;52.372;8.990;2023-07-13T01:32:27;18.20;99.90
12111;DHT22;6119;52.372;8.990;2023-07-13T01:35:14;18.30;99.90
12111;DHT22;6119;52.372;8.990;2023-07-13T01:38:04;18.30;99.90
12111;DHT22;6119;52.372;8.990;2023-07-13T01:40:51;18.30;99.90
12111;DHT22;6119;52.372;8.990;2023-07-13T01:43:38;18.30;99.90
12111;DHT22;6119;52.372;8.990;2023-07-13T01:46:24;18.30;99.90
12111;DHT22;6119;52.372;8.990;2023-07-13T01:49:12;18.20;99.90
12111;DHT22;6119;52.372;8.990;2023-07-13T01:51:58;18.20;99.90
12111;DHT22;6119;52.372;8.990;2023-07-13T01:54:46;18.20;99.90
12111;DHT22;6119;52.372;8.990;2023-07-13T01:57:32;18.20;99.90
12111;DHT22;6119;52.372;8.990;2023-07-13T02:00:19;18.20;99.90
12111;DHT22;6119;52.372;8.990;2023-07-13T02:03:06;18.20;99.90
12111;DHT22;6119;52.372;8.990;2023-07-13T02:05:53;18.20;99.90
12111;DHT22;6119;52.372;8.990;2023-07-13T02:08:41;18.20;99.90
12111;DHT22;6119;52.372;8.990;2023-07-13T02:11:29;18.10;99.90
12111;DHT22;6119;52.372;8.990;2023-07-13T02:14:18;18.20;99.90
12111;DHT22;6119;52.372;8.990;2023-07-13T02:17:04;18.30;99.90
12111;DHT22;6119;52.372;8.990;2023-07-13T02:19:51;18.30;99.90
12111;DHT22;6119;52.372;8.990;2023-07-13T02:22:38;18.30;99.90
12111;DHT22;6119;52.372;8.990;2023-07-13T02:25:25;18.40;99.90
12111;DHT22;6119;52.372;8.990;2023-07-13T02:28:14;18.40;99.90
12111;DHT22;6119;52.372;8.990;2023-07-13T02:31:08;18.30;99.90
12111;DHT22;6119;52.372;8.990;2023-07-13T02:33:55;18.30;99.90
12111;DHT22;6119;52.372;8.990;2023-07-13T02:36:42;18.40;99.90
12111;DHT22;6119;52.372;8.990;2023-07-13T02:39:28;18.40;99.90
12111;DHT22;6119;52.372;8.990;2023-07-13T02:42:18;18.40;99.90
12111;DHT22;6119;52.372;8.990;2023-07-13T02:45:06;18.40;99.90
12111;DHT22;6119;52.372;8.990;2023-07-13T02:47:54;18.40;99.90
12111;DHT22;6119;52.372;8.990;2023-07-13T02:50:41;18.40;99.90
12111;DHT22;6119;52.372;8.990;2023-07-13T02:53:28;18.40;99.90
12111;DHT22;6119;52.372;8.990;2023-07-13T02:56:14;18.40;99.90
12111;DHT22;6119;52.372;8.990;2023-07-13T02:59:02;18.30;99.90
12111;DHT22;6119;52.372;8.990;2023-07-13T03:01:50;18.30;99.90
12111;DHT22;6119;52.372;8.990;2023-07-13T03:04:37;17.40;99.90
12111;DHT22;6119;52.372;8.990;2023-07-13T03:07:24;18.30;99.90
12111;DHT22;6119;52.372;8.990;2023-07-13T03:10:12;18.30;99.90
12111;DHT22;6119;52.372;8.990;2023-07-13T03:12:58;18.30;99.90
12111;DHT22;6119;52.372;8.990;2023-07-13T03:15:48;18.30;99.90
12111;DHT22;6119;52.372;8.990;2023-07-13T03:18:37;18.20;99.90
12111;DHT22;6119;52.372;8.990;2023-07-13T03:21:23;18.30;99.90
12111;DHT22;6119;52.372;8.990;2023-07-13T03:24:10;18.10;99.90
12111;DHT22;6119;52.372;8.990;2023-07-13T03:26:57;18.20;99.90
12111;DHT22;6119;52.372;8.990;2023-07-13T03:29:43;18.30;99.90
12111;DHT22;6119;52.372;8.990;2023-07-13T03:32:30;18.30;99.90
12111;DHT22;6119;52.372;8.990;2023-07-13T03:35:18;18.20;99.90
12111;DHT22;6119;52.372;8.990;2023-07-13T03:38:04;18.20;99.90
12111;DHT22;6119;52.372;8.990;2023-07-13T03:40:51;18.10;99.90
12111;DHT22;6119;52.372;8.990;2023-07-13T03:43:38;18.10;99.90
12111;DHT22;6119;52.372;8.990;2023-07-13T03:46:25;18.20;99.90
12111;DHT22;6119;52.372;8.990;2023-07-13T03:49:12;18.10;99.90
12111;DHT22;6119;52.372;8.990;2023-07-13T03:52:00;18.20;99.90
12111;DHT22;6119;52.372;8.990;2023-07-13T03:54:47;18.20;99.90
12111;DHT22;6119;52.372;8.990;2023-07-13T03:57:34;18.10;99.90
12111;DHT22;6119;52.372;8.990;2023-07-13T04:00:25;18.10;99.90
12111;DHT22;6119;52.372;8.990;2023-07-13T04:03:12;18.00;99.90
12111;DHT22;6119;52.372;8.990;2023-07-13T04:05:59;18.00;99.90
12111;DHT22;6119;52.372;8.990;2023-07-13T04:08:48;18.00;99.90
12111;DHT22;6119;52.372;8.990;2023-07-13T04:11:36;18.10;99.90
12111;DHT22;6119;52.372;8.990;2023-07-13T04:14:22;18.00;99.90
12111;DHT22;6119;52.372;8.990;2023-07-13T04:17:09;18.00;99.90
12111;DHT22;6119;52.372;8.990;2023-07-13T04:19:56;18.00;99.90
12111;DHT22;6119;52.372;8.990;2023-07-13T04:22:42;18.10;99.90
12111;DHT22;6119;52.372;8.990;2023-07-13T04:25:31;18.10;99.90
12111;DHT22;6119;52.372;8.990;2023-07-13T04:28:17;18.20;99.90
12111;DHT22;6119;52.372;8.990;2023-07-13T04:31:04;18.10;99.90
12111;DHT22;6119;52.372;8.990;2023-07-13T04:33:51;18.10;99.90
12111;DHT22;6119;52.372;8.990;2023-07-13T04:36:38;18.00;99.90
12111;DHT22;6119;52.372;8.990;2023-07-13T04:39:25;17.90;99.90
12111;DHT22;6119;52.372;8.990;2023-07-13T04:42:12;18.00;99.90
12111;DHT22;6119;52.372;8.990;2023-07-13T04:44:59;18.10;99.90
12111;DHT22;6119;52.372;8.990;2023-07-13T04:47:45;18.00;99.90
12111;DHT22;6119;52.372;8.990;2023-07-13T04:50:33;18.10;99.90
12111;DHT22;6119;52.372;8.990;2023-07-13T04:53:22;17.90;99.90
12111;DHT22;6119;52.372;8.990;2023-07-13T04:56:09;18.10;99.90
12111;DHT22;6119;52.372;8.990;2023-07-13T04:58:57;18.10;99.90
12111;DHT22;6119;52.372;8.990;2023-07-13T05:01:43;18.10;99.90
12111;DHT22;6119;52.372;8.990;2023-07-13T05:04:31;18.10;99.90
12111;DHT22;6119;52.372;8.990;2023-07-13T05:07:17;18.20;99.90
12111;DHT22;6119;52.372;8.990;2023-07-13T05:10:05;18.30;99.90
12111;DHT22;6119;52.372;8.990;2023-07-13T05:12:52;18.40;99.90
12111;DHT22;6119;52.372;8.990;2023-07-13T05:15:40;18.20;99.90
12111;DHT22;6119;52.372;8.990;2023-07-13T05:18:27;18.20;99.90
12111;DHT22;6119;52.372;8.990;2023-07-13T05:21:14;18.30;99.90
12111;DHT22;6119;52.372;8.990;2023-07-13T05:24:01;18.40;99.90
12111;DHT22;6119;52.372;8.990;2023-07-13T05:27:04;18.30;99.90
12111;DHT22;6119;52.372;8.990;2023-07-13T05:29:51;18.30;99.90
12111;DHT22;6119;52.372;8.990;2023-07-13T05:32:39;18.30;99.90
12111;DHT22;6119;52.372;8.990;2023-07-13T05:35:26;18.20;99.90
12111;DHT22;6119;52.372;8.990;2023-07-13T05:38:13;18.10;99.90
12111;DHT22;6119;52.372;8.990;2023-07-13T05:40:59;18.20;99.90
12111;DHT22;6119;52.372;8.990;2023-07-13T05:43:50;18.10;99.90
12111;DHT22;6119;52.372;8.990;2023-07-13T05:46:36;18.10;99.90
12111;DHT22;6119;52.372;8.990;2023-07-13T05:49:25;18.30;99.90
12111;DHT22;6119;52.372;8.990;2023-07-13T05:52:11;18.30;99.90
12111;DHT22;6119;52.372;8.990;2023-07-13T05:54:58;18.30;99.90
12111;DHT22;6119;52.372;8.990;2023-07-13T05:57:45;18.30;99.90
12111;DHT22;6119;52.372;8.990;2023-07-13T06:00:31;18.20;99.90
12111;DHT22;6119;52.372;8.990;2023-07-13T06:03:19;18.30;99.90
12111;DHT22;6119;52.372;8.990;2023-07-13T06:06:08;18.30;99.90
12111;DHT22;6119;52.372;8.990;2023-07-13T06:08:56;18.30;99.90
12111;DHT22;6119;52.372;8.990;2023-07-13T06:11:42;18.30;99.90
12111;DHT22;6119;52.372;8.990;2023-07-13T06:14:29;18.30;99.90
12111;DHT22;6119;52.372;8.990;2023-07-13T06:17:15;18.40;99.90
12111;DHT22;6119;52.372;8.990;2023-07-13T06:20:02;18.50;99.90
12111;DHT22;6119;52.372;8.990;2023-07-13T06:22:51;18.40;99.90
12111;DHT22;6119;52.372;8.990;2023-07-13T06:25:37;18.50;99.90
12111;DHT22;6119;52.372;8.990;2023-07-13T06:28:24;18.60;99.90
12111;DHT22;6119;52.372;8.990;2023-07-13T06:31:12;18.80;99.90
12111;DHT22;6119;52.372;8.990;2023-07-13T06:33:59;18.70;99.90
12111;DHT22;6119;52.372;8.990;2023-07-13T06:36:46;18.80;99.90
12111;DHT22;6119;52.372;8.990;2023-07-13T06:39:34;18.60;99.90
12111;DHT22;6119;52.372;8.990;2023-07-13T06:42:20;18.60;99.90
12111;DHT22;6119;52.372;8.990;2023-07-13T06:45:07;18.70;99.90
12111;DHT22;6119;52.372;8.990;2023-07-13T06:47:54;18.80;99.90
12111;DHT22;6119;52.372;8.990;2023-07-13T06:50:41;18.90;99.90
12111;DHT22;6119;52.372;8.990;2023-07-13T06:53:28;19.00;99.90
12111;DHT22;6119;52.372;8.990;2023-07-13T06:56:16;19.00;99.90
12111;DHT22;6119;52.372;8.990;2023-07-13T06:59:03;18.90;99.90
12111;DHT22;6119;52.372;8.990;2023-07-13T07:01:50;19.00;99.90
12111;DHT22;6119;52.372;8.990;2023-07-13T07:04:37;19.00;99.90
12111;DHT22;6119;52.372;8.990;2023-07-13T07:07:24;19.00;99.90
12111;DHT22;6119;52.372;8.990;2023-07-13T07:10:10;19.00;99.90
12111;DHT22;6119;52.372;8.990;2023-07-13T07:12:58;19.20;99.90
12111;DHT22;6119;52.372;8.990;2023-07-13T07:15:45;19.30;99.90
12111;DHT22;6119;52.372;8.990;2023-07-13T07:18:31;19.20;99.90
12111;DHT22;6119;52.372;8.990;2023-07-13T07:21:17;19.30;99.90
12111;DHT22;6119;52.372;8.990;2023-07-13T07:24:05;19.40;99.90
12111;DHT22;6119;52.372;8.990;2023-07-13T07:26:52;19.30;99.90
12111;DHT22;6119;52.372;8.990;2023-07-13T07:29:43;19.20;99.90
12111;DHT22;6119;52.372;8.990;2023-07-13T07:32:49;19.40;99.90
12111;DHT22;6119;52.372;8.990;2023-07-13T07:35:38;19.40;99.90
12111;DHT22;6119;52.372;8.990;2023-07-13T07:38:45;19.40;99.90
12111;DHT22;6119;52.372;8.990;2023-07-13T07:41:31;19.50;99.90
12111;DHT22;6119;52.372;8.990;2023-07-13T07:44:21;19.60;99.90
12111;DHT22;6119;52.372;8.990;2023-07-13T07:47:09;19.80;99.90
12111;DHT22;6119;52.372;8.990;2023-07-13T07:49:56;19.70;99.90
12111;DHT22;6119;52.372;8.990;2023-07-13T07:52:43;19.60;99.90
12111;DHT22;6119;52.372;8.990;2023-07-13T07:55:29;19.60;99.90
12111;DHT22;6119;52.372;8.990;2023-07-13T07:58:22;19.80;99.90
12111;DHT22;6119;52.372;8.990;2023-07-13T08:01:11;19.80;99.90
12111;DHT22;6119;52.372;8.990;2023-07-13T08:04:02;19.90;99.90
12111;DHT22;6119;52.372;8.990;2023-07-13T08:06:52;19.70;99.90
12111;DHT22;6119;52.372;8.990;2023-07-13T08:09:39;20.00;99.90
12111;DHT22;6119;52.372;8.990;2023-07-13T08:12:25;20.10;99.90
12111;DHT22;6119;52.372;8.990;2023-07-13T08:15:16;20.20;99.90
12111;DHT22;6119;52.372;8.990;2023-07-13T08:18:06;20.30;99.90
12111;DHT22;6119;52.372;8.990;2023-07-13T08:20:55;20.00;99.90
12111;DHT22;6119;52.372;8.990;2023-07-13T08:23:42;19.80;99.90
12111;DHT22;6119;52.372;8.990;2023-07-13T08:26:29;20.00;99.90
12111;DHT22;6119;52.372;8.990;2023-07-13T08:29:15;20.30;99.90
12111;DHT22;6119;52.372;8.990;2023-07-13T08:32:02;20.30;99.90
12111;DHT22;6119;52.372;8.990;2023-07-13T08:34:50;20.40;99.90
12111;DHT22;6119;52.372;8.990;2023-07-13T08:37:38;20.40;99.90
12111;DHT22;6119;52.372;8.990;2023-07-13T08:40:25;20.50;99.90
12111;DHT22;6119;52.372;8.990;2023-07-13T08:43:16;20.40;99.90
12111;DHT22;6119;52.372;8.990;2023-07-13T08:46:07;20.60;99.90
12111;DHT22;6119;52.372;8.990;2023-07-13T08:48:58;20.80;99.90
12111;DHT22;6119;52.372;8.990;2023-07-13T08:51:49;21.00;99.90
12111;DHT22;6119;52.372;8.990;2023-07-13T08:54:43;21.10;99.90
12111;DHT22;6119;52.372;8.990;2023-07-13T08:57:33;21.30;99.90
12111;DHT22;6119;52.372;8.990;2023-07-13T09:00:21;21.30;99.90
12111;DHT22;6119;52.372;8.990;2023-07-13T09:03:16;21.50;99.90
12111;DHT22;6119;52.372;8.990;2023-07-13T09:06:07;21.50;99.90
12111;DHT22;6119;52.372;8.990;2023-07-13T09:09:00;21.70;99.90
12111;DHT22;6119;52.372;8.990;2023-07-13T09:11:56;21.60;99.90
12111;DHT22;6119;52.372;8.990;2023-07-13T09:14:48;21.60;99.90
12111;DHT22;6119;52.372;8.990;2023-07-13T09:17:44;21.80;99.90
12111;DHT22;6119;52.372;8.990;2023-07-13T09:20:36;21.90;99.90
12111;DHT22;6119;52.372;8.990;2023-07-13T09:23:24;21.80;99.90
12111;DHT22;6119;52.372;8.990;2023-07-13T09:26:16;21.80;99.90
12111;DHT22;6119;52.372;8.990;2023-07-13T09:29:14;22.00;99.90
12111;DHT22;6119;52.372;8.990;2023-07-13T09:32:06;22.10;99.90
12111;DHT22;6119;52.372;8.990;2023-07-13T09:34:55;22.00;99.90
12111;DHT22;6119;52.372;8.990;2023-07-13T09:37:43;22.30;99.90
12111;DHT22;6119;52.372;8.990;2023-07-13T09:40:47;22.30;99.90
12111;DHT22;6119;52.372;8.990;2023-07-13T09:43:36;22.10;99.90
12111;DHT22;6119;52.372;8.990;2023-07-13T09:46:24;22.20;99.90
12111;DHT22;6119;52.372;8.990;2023-07-13T09:49:11;22.00;99.90
12111;DHT22;6119;52.372;8.990;2023-07-13T09:51:59;21.60;99.90
12111;DHT22;6119;52.372;8.990;2023-07-13T09:54:49;21.60;99.90
12111;DHT22;6119;52.372;8.990;2023-07-13T09:57:46;21.90;99.90
12111;DHT22;6119;52.372;8.990;2023-07-13T10:00:36;21.90;99.90
12111;DHT22;6119;52.372;8.990;2023-07-13T10:03:26;21.90;99.90
12111;DHT22;6119;52.372;8.990;2023-07-13T10:06:15;22.20;99.90
12111;DHT22;6119;52.372;8.990;2023-07-13T10:09:03;22.60;99.90
12111;DHT22;6119;52.372;8.990;2023-07-13T10:11:53;22.80;99.90
12111;DHT22;6119;52.372;8.990;2023-07-13T10:14:42;22.50;99.90
12111;DHT22;6119;52.372;8.990;2023-07-13T10:17:31;22.70;99.90
12111;DHT22;6119;52.372;8.990;2023-07-13T10:20:20;23.00;99.90
12111;DHT22;6119;52.372;8.990;2023-07-13T10:23:12;22.80;99.90
12111;DHT22;6119;52.372;8.990;2023-07-13T10:26:00;23.00;99.90
12111;DHT22;6119;52.372;8.990;2023-07-13T10:28:51;23.20;99.90
12111;DHT22;6119;52.372;8.990;2023-07-13T10:31:39;23.30;99.90
12111;DHT22;6119;52.372;8.990;2023-07-13T10:34:27;23.40;99.90
12111;DHT22;6119;52.372;8.990;2023-07-13T10:37:22;23.20;99.90
12111;DHT22;6119;52.372;8.990;2023-07-13T10:40:14;23.60;99.90
12111;DHT22;6119;52.372;8.990;2023-07-13T10:43:06;23.80;99.90
12111;DHT22;6119;52.372;8.990;2023-07-13T10:45:59;23.50;99.90
12111;DHT22;6119;52.372;8.990;2023-07-13T10:48:50;23.60;99.90
12111;DHT22;6119;52.372;8.990;2023-07-13T10:51:40;23.60;99.90
12111;DHT22;6119;52.372;8.990;2023-07-13T10:54:31;23.60;99.90
12111;DHT22;6119;52.372;8.990;2023-07-13T10:57:20;23.20;99.90
12111;DHT22;6119;52.372;8.990;2023-07-13T11:00:15;23.70;99.90
12111;DHT22;6119;52.372;8.990;2023-07-13T11:03:03;24.00;99.90
12111;DHT22;6119;52.372;8.990;2023-07-13T11:05:52;24.10;99.90
12111;DHT22;6119;52.372;8.990;2023-07-13T11:08:55;23.90;99.90
12111;DHT22;6119;52.372;8.990;2023-07-13T11:11:44;23.70;99.90
12111;DHT22;6119;52.372;8.990;2023-07-13T11:14:35;23.90;99.90
12111;DHT22;6119;52.372;8.990;2023-07-13T11:17:33;24.10;99.90
12111;DHT22;6119;52.372;8.990;2023-07-13T11:20:36;23.90;99.90
12111;DHT22;6119;52.372;8.990;2023-07-13T11:23:31;23.70;99.90
12111;DHT22;6119;52.372;8.990;2023-07-13T11:26:41;23.30;99.90
12111;DHT22;6119;52.372;8.990;2023-07-13T11:29:37;23.00;99.90
12111;DHT22;6119;52.372;8.990;2023-07-13T11:32:29;22.70;99.90
12111;DHT22;6119;52.372;8.990;2023-07-13T11:35:21;22.90;99.90
12111;DHT22;6119;52.372;8.990;2023-07-13T11:38:14;23.00;99.90
12111;DHT22;6119;52.372;8.990;2023-07-13T11:41:04;23.60;99.90
12111;DHT22;6119;52.372;8.990;2023-07-13T11:43:53;24.80;99.90
12111;DHT22;6119;52.372;8.990;2023-07-13T11:46:46;24.10;99.90
12111;DHT22;6119;52.372;8.990;2023-07-13T11:49:42;23.80;99.90
12111;DHT22;6119;52.372;8.990;2023-07-13T11:52:32;23.60;99.90
12111;DHT22;6119;52.372;8.990;2023-07-13T11:55:22;23.50;99.90
12111;DHT22;6119;52.372;8.990;2023-07-13T11:58:10;23.20;99.90
12111;DHT22;6119;52.372;8.990;2023-07-13T12:01:00;23.30;99.90
12111;DHT22;6119;52.372;8.990;2023-07-13T12:03:52;23.00;99.90
12111;DHT22;6119;52.372;8.990;2023-07-13T12:06:39;23.00;99.90
12111;DHT22;6119;52.372;8.990;2023-07-13T12:09:29;22.90;99.90
12111;DHT22;6119;52.372;8.990;2023-07-13T12:12:18;22.80;99.90
12111;DHT22;6119;52.372;8.990;2023-07-13T12:15:06;22.60;99.90
12111;DHT22;6119;52.372;8.990;2023-07-13T12:17:53;22.30;99.90
12111;DHT22;6119;52.372;8.990;2023-07-13T12:20:45;22.80;99.90
12111;DHT22;6119;52.372;8.990;2023-07-13T12:23:34;23.10;99.90
12111;DHT22;6119;52.372;8.990;2023-07-13T12:26:21;22.90;99.90
12111;DHT22;6119;52.372;8.990;2023-07-13T12:29:15;23.00;99.90
12111;DHT22;6119;52.372;8.990;2023-07-13T12:32:03;23.00;99.90
12111;DHT22;6119;52.372;8.990;2023-07-13T12:34:55;22.80;99.90
12111;DHT22;6119;52.372;8.990;2023-07-13T12:37:45;22.60;99.90
12111;DHT22;6119;52.372;8.990;2023-07-13T12:40:35;22.50;99.90
12111;DHT22;6119;52.372;8.990;2023-07-13T12:43:22;22.40;99.90
12111;DHT22;6119;52.372;8.990;2023-07-13T12:46:17;22.60;99.90
12111;DHT22;6119;52.372;8.990;2023-07-13T12:49:06;22.30;99.90
12111;DHT22;6119;52.372;8.990;2023-07-13T12:52:10;21.50;99.90
12111;DHT22;6119;52.372;8.990;2023-07-13T12:55:04;21.00;99.90
12111;DHT22;6119;52.372;8.990;2023-07-13T12:57:54;21.10;99.90
12111;DHT22;6119;52.372;8.990;2023-07-13T13:00:49;21.30;99.90
12111;DHT22;6119;52.372;8.990;2023-07-13T13:03:40;21.70;99.90
12111;DHT22;6119;52.372;8.990;2023-07-13T13:06:28;21.40;99.90
12111;DHT22;6119;52.372;8.990;2023-07-13T13:09:17;21.00;99.90
12111;DHT22;6119;52.372;8.990;2023-07-13T13:12:07;20.90;99.90
12111;DHT22;6119;52.372;8.990;2023-07-13T13:14:58;20.90;99.90
12111;DHT22;6119;52.372;8.990;2023-07-13T13:17:45;21.00;99.90
12111;DHT22;6119;52.372;8.990;2023-07-13T13:20:33;20.90;99.90
12111;DHT22;6119;52.372;8.990;2023-07-13T13:23:20;20.70;99.90
12111;DHT22;6119;52.372;8.990;2023-07-13T13:26:10;20.70;99.90
12111;DHT22;6119;52.372;8.990;2023-07-13T13:28:59;20.70;99.90
12111;DHT22;6119;52.372;8.990;2023-07-13T13:31:46;20.60;99.90
12111;DHT22;6119;52.372;8.990;2023-07-13T13:34:34;20.70;99.90
12111;DHT22;6119;52.372;8.990;2023-07-13T13:37:22;20.20;99.90
12111;DHT22;6119;52.372;8.990;2023-07-13T13:40:15;19.90;99.90
12111;DHT22;6119;52.372;8.990;2023-07-13T13:43:08;19.40;99.90
12111;DHT22;6119;52.372;8.990;2023-07-13T13:46:01;19.20;99.90
12111;DHT22;6119;52.372;8.990;2023-07-13T13:48:48;18.90;99.90
12111;DHT22;6119;52.372;8.990;2023-07-13T13:51:35;18.90;99.90
12111;DHT22;6119;52.372;8.990;2023-07-13T13:54:23;18.80;99.90
12111;DHT22;6119;52.372;8.990;2023-07-13T13:57:10;18.70;99.90
12111;DHT22;6119;52.372;8.990;2023-07-13T13:59:58;18.40;99.90
12111;DHT22;6119;52.372;8.990;2023-07-13T14:02:47;18.30;99.90
12111;DHT22;6119;52.372;8.990;2023-07-13T14:05:37;18.20;99.90
12111;DHT22;6119;52.372;8.990;2023-07-13T14:08:26;18.10;99.90
12111;DHT22;6119;52.372;8.990;2023-07-13T14:11:14;17.90;99.90
12111;DHT22;6119;52.372;8.990;2023-07-13T14:14:01;17.80;99.90
12111;DHT22;6119;52.372;8.990;2023-07-13T14:16:50;17.50;99.90
12111;DHT22;6119;52.372;8.990;2023-07-13T14:19:41;17.40;99.90
12111;DHT22;6119;52.372;8.990;2023-07-13T14:22:27;17.40;99.90
12111;DHT22;6119;52.372;8.990;2023-07-13T14:25:16;17.40;99.90
12111;DHT22;6119;52.372;8.990;2023-07-13T14:28:17;17.40;99.90
12111;DHT22;6119;52.372;8.990;2023-07-13T14:31:06;17.70;99.90
12111;DHT22;6119;52.372;8.990;2023-07-13T14:33:53;17.70;99.90
12111;DHT22;6119;52.372;8.990;2023-07-13T14:36:43;17.70;99.90
12111;DHT22;6119;52.372;8.990;2023-07-13T14:39:31;17.90;99.90
12111;DHT22;6119;52.372;8.990;2023-07-13T14:42:17;17.90;99.90
12111;DHT22;6119;52.372;8.990;2023-07-13T14:45:05;18.10;99.90
12111;DHT22;6119;52.372;8.990;2023-07-13T14:47:52;18.60;99.90
12111;DHT22;6119;52.372;8.990;2023-07-13T14:50:39;19.20;99.90
12111;DHT22;6119;52.372;8.990;2023-07-13T14:53:28;19.70;99.90
12111;DHT22;6119;52.372;8.990;2023-07-13T14:56:15;19.90;99.90
12111;DHT22;6119;52.372;8.990;2023-07-13T14:59:02;19.90;99.90
12111;DHT22;6119;52.372;8.990;2023-07-13T15:01:50;19.70;99.90
12111;DHT22;6119;52.372;8.990;2023-07-13T15:04:37;19.70;99.90
12111;DHT22;6119;52.372;8.990;2023-07-13T15:07:24;19.70;99.90
12111;DHT22;6119;52.372;8.990;2023-07-13T15:10:17;19.60;99.90
12111;DHT22;6119;52.372;8.990;2023-07-13T15:13:14;19.80;99.90
12111;DHT22;6119;52.372;8.990;2023-07-13T15:16:01;19.60;99.90
12111;DHT22;6119;52.372;8.990;2023-07-13T15:18:48;19.70;99.90
12111;DHT22;6119;52.372;8.990;2023-07-13T15:21:35;19.50;99.90
12111;DHT22;6119;52.372;8.990;2023-07-13T15:24:22;19.40;99.90
12111;DHT22;6119;52.372;8.990;2023-07-13T15:27:11;19.40;99.90
12111;DHT22;6119;52.372;8.990;2023-07-13T15:29:58;19.40;99.90
12111;DHT22;6119;52.372;8.990;2023-07-13T15:32:46;19.20;99.90
12111;DHT22;6119;52.372;8.990;2023-07-13T15:35:34;19.00;99.90
12111;DHT22;6119;52.372;8.990;2023-07-13T15:38:22;19.10;99.90
12111;DHT22;6119;52.372;8.990;2023-07-13T15:41:16;18.90;99.90
12111;DHT22;6119;52.372;8.990;2023-07-13T15:44:20;19.00;99.90
12111;DHT22;6119;52.372;8.990;2023-07-13T15:47:10;18.90;99.90
12111;DHT22;6119;52.372;8.990;2023-07-13T15:49:57;18.70;99.90
12111;DHT22;6119;52.372;8.990;2023-07-13T15:52:48;18.90;99.90
12111;DHT22;6119;52.372;8.990;2023-07-13T15:55:37;18.90;99.90
12111;DHT22;6119;52.372;8.990;2023-07-13T15:58:24;18.80;99.90
12111;DHT22;6119;52.372;8.990;2023-07-13T16:01:13;18.90;99.90
12111;DHT22;6119;52.372;8.990;2023-07-13T16:04:00;19.00;99.90
12111;DHT22;6119;52.372;8.990;2023-07-13T16:06:47;19.00;99.90
12111;DHT22;6119;52.372;8.990;2023-07-13T16:09:34;19.00;99.90
12111;DHT22;6119;52.372;8.990;2023-07-13T16:12:20;19.00;99.90
12111;DHT22;6119;52.372;8.990;2023-07-13T16:15:13;19.00;99.90
12111;DHT22;6119;52.372;8.990;2023-07-13T16:18:02;19.10;99.90
12111;DHT22;6119;52.372;8.990;2023-07-13T16:20:50;19.20;99.90
12111;DHT22;6119;52.372;8.990;2023-07-13T16:23:39;19.20;99.90
12111;DHT22;6119;52.372;8.990;2023-07-13T16:26:46;19.10;99.90
12111;DHT22;6119;52.372;8.990;2023-07-13T16:29:34;19.20;99.90
12111;DHT22;6119;52.372;8.990;2023-07-13T16:32:21;19.00;99.90
12111;DHT22;6119;52.372;8.990;2023-07-13T16:35:09;19.00;99.90
12111;DHT22;6119;52.372;8.990;2023-07-13T16:37:56;19.10;99.90
12111;DHT22;6119;52.372;8.990;2023-07-13T16:40:48;19.00;99.90
12111;DHT22;6119;52.372;8.990;2023-07-13T16:43:35;19.00;99.90
12111;DHT22;6119;52.372;8.990;2023-07-13T16:46:25;19.10;99.90
12111;DHT22;6119;52.372;8.990;2023-07-13T16:49:22;19.00;99.90
12111;DHT22;6119;52.372;8.990;2023-07-13T16:52:12;19.10;99.90
12111;DHT22;6119;52.372;8.990;2023-07-13T16:54:59;19.40;99.90
12111;DHT22;6119;52.372;8.990;2023-07-13T16:57:46;19.30;99.90
12111;DHT22;6119;52.372;8.990;2023-07-13T17:00:33;19.40;99.90
12111;DHT22;6119;52.372;8.990;2023-07-13T17:03:22;19.60;99.90
12111;DHT22;6119;52.372;8.990;2023-07-13T17:06:23;19.60;99.90
12111;DHT22;6119;52.372;8.990;2023-07-13T17:09:12;19.50;99.90
12111;DHT22;6119;52.372;8.990;2023-07-13T17:11:59;19.40;99.90
12111;DHT22;6119;52.372;8.990;2023-07-13T17:14:46;19.50;99.90
12111;DHT22;6119;52.372;8.990;2023-07-13T17:17:37;19.40;99.90
12111;DHT22;6119;52.372;8.990;2023-07-13T17:20:30;19.40;99.90
12111;DHT22;6119;52.372;8.990;2023-07-13T17:23:24;19.60;99.90
12111;DHT22;6119;52.372;8.990;2023-07-13T17:26:12;19.60;99.90
12111;DHT22;6119;52.372;8.990;2023-07-13T17:28:59;19.60;99.90
12111;DHT22;6119;52.372;8.990;2023-07-13T17:31:46;19.70;99.90
12111;DHT22;6119;52.372;8.990;2023-07-13T17:34:35;20.10;99.90
12111;DHT22;6119;52.372;8.990;2023-07-13T17:37:30;20.40;99.90
12111;DHT22;6119;52.372;8.990;2023-07-13T17:40:17;20.90;99.90
12111;DHT22;6119;52.372;8.990;2023-07-13T17:43:06;21.10;99.90
12111;DHT22;6119;52.372;8.990;2023-07-13T17:45:54;21.20;99.90
12111;DHT22;6119;52.372;8.990;2023-07-13T17:48:45;21.40;99.90
12111;DHT22;6119;52.372;8.990;2023-07-13T17:51:32;20.90;99.90
12111;DHT22;6119;52.372;8.990;2023-07-13T17:54:21;21.20;99.90
12111;DHT22;6119;52.372;8.990;2023-07-13T17:57:10;21.20;99.90
12111;DHT22;6119;52.372;8.990;2023-07-13T17:59:58;21.40;99.90
12111;DHT22;6119;52.372;8.990;2023-07-13T18:02:45;21.20;99.90
12111;DHT22;6119;52.372;8.990;2023-07-13T18:05:33;20.90;99.90